首页
METAR-TAF:

METAR-TAF

机场 :

Sumburgh, 设德兰群岛, 苏格兰

纬度: 59-53N, 经度: 001-18W, 海拔: 5米

当前天气观测

该预报发布于37分钟前的09:20 UTC
风速6节,风向西转西南
温度 10°C
湿度 93%
气压 1027 hPa
能見度: 0700
阴天层低于100英尺

METAR: EGPB 010920Z 24006KT 0700 FG OVC000 10/09 Q1027 TEMPO 0900 BKN002

时间: 10:57 (09:57 UTC)

预报

该预报发布于24分钟前的09:33 UTC
预报有效从01日的 09点(UTC)到 01日的 18点(UTC)
风速9节,风向南转西南
能見度: 0300
多云层高于100英尺
几率 40% :
短暂存在
从 01日的 09点(UTC)到 01日的 18点(UTC)
能見度: 3000
多云层高于400英尺
轻雾

TAF: EGPB 010933Z 0109/0118 20009KT 0300 FG BKN001 PROB40 TEMPO 0109/0118 3000 BR BKN004

超过4000个机场的气象观测和天气预报(METAR&TAF报告)。

可查询的气象台以黄色和红色小点在地图上表示。

将鼠标移到小点上方,可查看气象台名称。

然后点击查看天气观测和预报。

如需切换地图:点击带黑十字的绿色按钮放大地图;点击带横线的绿色按钮缩小地图;或者点击绿色箭头查看邻近地区的地图。


METAR-TAF: